createdAt,value
2023-03-07T00:02:08.879Z,98189.88
2023-03-07T00:04:36.873Z,98177.69
2023-03-07T00:07:04.847Z,98179.47
2023-03-07T00:09:32.448Z,98166.47
2023-03-07T00:12:00.128Z,98169.09
2023-03-07T00:14:28.908Z,98169.91
2023-03-07T00:16:56.524Z,98161.22
2023-03-07T00:19:24.566Z,98165.50
2023-03-07T00:21:52.201Z,98163.59
2023-03-07T00:24:19.802Z,98165.28
2023-03-07T00:26:47.606Z,98164.31
2023-03-07T00:29:15.247Z,98160.63
2023-03-07T00:31:43.314Z,98151.78
2023-03-07T00:34:11.057Z,98157.72
2023-03-07T00:36:38.972Z,98155.84
2023-03-07T00:39:07.123Z,98156.66
2023-03-07T00:41:35.398Z,98153.94
2023-03-07T00:44:03.025Z,98143.41
2023-03-07T00:46:30.702Z,98146.91
2023-03-07T00:48:58.325Z,98144.25
2023-03-07T00:51:25.937Z,98140.78
2023-03-07T00:53:53.592Z,98142.47
2023-03-07T00:56:21.214Z,98151.91
2023-03-07T00:58:48.843Z,98142.94
2023-03-07T01:01:16.522Z,98146.53
2023-03-07T01:03:44.290Z,98142.81
2023-03-07T01:06:12.246Z,98140.91
2023-03-07T01:08:39.851Z,98134.69
2023-03-07T01:11:07.474Z,98133.72
2023-03-07T01:13:35.032Z,98130.03
2023-03-07T01:16:02.624Z,98122.03
2023-03-07T01:18:30.938Z,98106.97
2023-03-07T01:20:58.532Z,98110.31
2023-03-07T01:23:26.165Z,98122.38
2023-03-07T01:25:53.824Z,98116.03
2023-03-07T01:28:21.428Z,98112.44
2023-03-07T01:30:49.361Z,98115.91
2023-03-07T01:33:17.004Z,98107.91
2023-03-07T01:35:44.628Z,98108.59
2023-03-07T01:38:12.213Z,98101.56
2023-03-07T01:40:40.880Z,98105.00
2023-03-07T01:43:08.489Z,98100.50
2023-03-07T01:45:36.093Z,98108.22
2023-03-07T01:48:04.086Z,98092.34
2023-03-07T01:50:31.662Z,98101.78
2023-03-07T01:52:59.409Z,98096.41
2023-03-07T01:55:27.362Z,98091.84
2023-03-07T01:57:54.966Z,98088.97
2023-03-07T02:00:25.586Z,98089.69
2023-03-07T02:02:53.503Z,98075.44
2023-03-07T02:05:21.125Z,98084.88
2023-03-07T02:07:49.068Z,98077.72
2023-03-07T02:10:16.688Z,98075.81
2023-03-07T02:12:44.246Z,98069.47
2023-03-07T02:15:11.814Z,98068.34
2023-03-07T02:17:39.606Z,98066.44
2023-03-07T02:20:07.551Z,98053.16
2023-03-07T02:22:35.091Z,98058.28
2023-03-07T02:25:02.998Z,98052.91
2023-03-07T02:27:30.540Z,98061.50
2023-03-07T02:29:58.307Z,98058.75
2023-03-07T02:32:26.296Z,98044.63
2023-03-07T02:34:53.861Z,98040.06
2023-03-07T02:37:21.425Z,98040.78
2023-03-07T02:39:49.017Z,98038.88
2023-03-07T02:42:16.603Z,98044.84
2023-03-07T02:44:44.177Z,98028.94
2023-03-07T02:47:12.112Z,98046.28
2023-03-07T02:49:39.704Z,98049.59
2023-03-07T02:52:07.315Z,98034.50
2023-03-07T02:54:34.941Z,98026.50
2023-03-07T02:57:02.546Z,98043.97
2023-03-07T02:59:30.120Z,98029.81
2023-03-07T03:01:57.869Z,98029.72
2023-03-07T03:04:25.521Z,98025.25
2023-03-07T03:06:53.163Z,98030.41
2023-03-07T03:09:21.264Z,98026.81
2023-03-07T03:11:48.842Z,98024.19
2023-03-07T03:14:16.567Z,98024.06
2023-03-07T03:16:44.192Z,98017.94
2023-03-07T03:19:11.775Z,98027.50
2023-03-07T03:21:39.936Z,98018.78
2023-03-07T03:24:07.549Z,98022.25
2023-03-07T03:26:35.100Z,98030.13
2023-03-07T03:29:02.679Z,98024.88
2023-03-07T03:31:30.634Z,98017.13
2023-03-07T03:34:10.802Z,98025.84
2023-03-07T03:36:38.454Z,98017.13
2023-03-07T03:39:10.961Z,98013.66
2023-03-07T03:41:38.793Z,98015.31
2023-03-07T03:44:06.496Z,98015.47
2023-03-07T03:46:34.537Z,98014.63
2023-03-07T03:49:02.140Z,98014.88
2023-03-07T03:51:29.760Z,98010.69
2023-03-07T03:53:57.765Z,98005.56
2023-03-07T03:56:25.345Z,98006.53
2023-03-07T03:58:52.943Z,98005.81
2023-03-07T04:01:20.498Z,98006.06
2023-03-07T04:03:48.096Z,98010.63
2023-03-07T04:06:15.871Z,98000.38
2023-03-07T04:08:44.459Z,98008.25
2023-03-07T04:11:12.422Z,98010.03
2023-03-07T04:13:40.294Z,97997.00
2023-03-07T04:16:07.954Z,97992.59
2023-03-07T04:18:35.573Z,97996.19
2023-03-07T04:21:03.170Z,97993.56
2023-03-07T04:23:31.361Z,97981.22
2023-03-07T04:25:58.966Z,97983.03
2023-03-07T04:28:26.606Z,97980.25
2023-03-07T04:30:54.158Z,97975.00
2023-03-07T04:33:21.744Z,97967.09
2023-03-07T04:35:50.073Z,97969.72
2023-03-07T04:38:17.718Z,97961.81
2023-03-07T04:40:45.273Z,97965.44
2023-03-07T04:43:13.061Z,97961.00
2023-03-07T04:45:40.675Z,97960.16
2023-03-07T04:48:08.693Z,97951.31
2023-03-07T04:50:36.375Z,97947.75
2023-03-07T04:53:03.964Z,97948.44
2023-03-07T04:55:31.918Z,97943.97
2023-03-07T04:57:59.517Z,97933.34
2023-03-07T05:00:27.509Z,97945.53
2023-03-07T05:02:55.401Z,97939.28
2023-03-07T05:05:23.028Z,97940.03
2023-03-07T05:07:50.747Z,97923.97
2023-03-07T05:10:18.304Z,97925.63
2023-03-07T05:12:46.279Z,97927.16
2023-03-07T05:15:13.853Z,97927.06
2023-03-07T05:17:41.696Z,97928.72
2023-03-07T05:20:10.580Z,97920.81
2023-03-07T05:22:38.191Z,97921.50
2023-03-07T05:25:06.231Z,97914.47
2023-03-07T05:27:33.858Z,97916.13
2023-03-07T05:30:01.479Z,97906.41
2023-03-07T05:32:29.323Z,97917.91
2023-03-07T05:34:56.977Z,97909.19
2023-03-07T05:37:24.954Z,97909.19
2023-03-07T05:39:52.849Z,97905.72
2023-03-07T05:42:20.452Z,97922.34
2023-03-07T05:44:48.018Z,97909.31
2023-03-07T05:47:15.613Z,97914.59
2023-03-07T05:49:43.635Z,97912.91
2023-03-07T05:52:11.250Z,97912.06
2023-03-07T05:54:38.854Z,97904.31
2023-03-07T05:57:06.808Z,97902.63
2023-03-07T05:59:34.484Z,97902.63
2023-03-07T06:02:02.459Z,97912.47
2023-03-07T06:04:30.138Z,97910.81
2023-03-07T06:06:57.826Z,97909.00
2023-03-07T06:09:26.119Z,97906.50
2023-03-07T06:11:53.887Z,97904.16
2023-03-07T06:14:21.965Z,97903.19
2023-03-07T06:16:49.554Z,97902.59
2023-03-07T06:19:17.174Z,97907.88
2023-03-07T06:21:44.983Z,97900.94
2023-03-07T06:24:12.900Z,97903.69
2023-03-07T06:26:40.967Z,97897.47
2023-03-07T06:29:08.582Z,97893.28
2023-03-07T06:31:36.232Z,97899.41
2023-03-07T06:34:04.067Z,97892.59
2023-03-07T06:36:31.750Z,97895.22
2023-03-07T06:38:59.712Z,97899.53
2023-03-07T06:41:27.441Z,97896.88
2023-03-07T06:43:55.010Z,97890.66
2023-03-07T06:46:23.945Z,97891.50
2023-03-07T06:48:52.396Z,97895.78
2023-03-07T06:51:20.399Z,97884.44
2023-03-07T06:53:48.507Z,97880.00
2023-03-07T06:56:16.281Z,97889.69
2023-03-07T06:58:44.027Z,97892.19
2023-03-07T07:01:11.694Z,97884.31
2023-03-07T07:03:39.772Z,97881.56
2023-03-07T07:06:07.423Z,97882.38
2023-03-07T07:08:35.326Z,97883.09
2023-03-07T07:11:03.052Z,97883.78
2023-03-07T07:13:30.679Z,97881.03
2023-03-07T07:15:59.197Z,97882.69
2023-03-07T07:18:26.973Z,97884.34
2023-03-07T07:20:54.719Z,97880.63
2023-03-07T07:23:22.352Z,97878.81
2023-03-07T07:25:50.088Z,97876.06
2023-03-07T07:28:18.159Z,97875.94
2023-03-07T07:30:45.918Z,97877.44
2023-03-07T07:33:13.804Z,97865.72
2023-03-07T07:35:41.754Z,97867.25
2023-03-07T07:38:09.501Z,97873.22
2023-03-07T07:40:37.606Z,97868.78
2023-03-07T07:43:05.336Z,97860.88
2023-03-07T07:45:33.081Z,97874.75
2023-03-07T07:48:01.032Z,97872.94
2023-03-07T07:50:28.724Z,97872.94
2023-03-07T07:52:57.147Z,97864.91
2023-03-07T07:55:25.832Z,97864.78
2023-03-07T07:57:53.556Z,97862.97
2023-03-07T08:00:21.639Z,97860.34
2023-03-07T08:02:51.127Z,97858.66
2023-03-07T08:05:19.177Z,97862.16
2023-03-07T08:07:46.828Z,97864.09
2023-03-07T08:10:16.170Z,97854.50
2023-03-07T08:12:43.859Z,97860.50
2023-03-07T08:15:11.936Z,97859.50
2023-03-07T08:17:40.217Z,97855.06
2023-03-07T08:20:08.701Z,97856.75
2023-03-07T08:22:36.338Z,97852.31
2023-03-07T08:25:04.820Z,97854.13
2023-03-07T08:27:32.444Z,97858.53
2023-03-07T08:30:00.522Z,97852.44
2023-03-07T08:32:28.274Z,97860.34
2023-03-07T08:34:56.089Z,97860.22
2023-03-07T08:37:24.833Z,97843.44
2023-03-07T08:39:52.725Z,97853.84
2023-03-07T08:42:21.106Z,97865.19
2023-03-07T08:44:48.815Z,97866.88
2023-03-07T08:47:16.913Z,97856.34
2023-03-07T08:49:45.190Z,97860.66
2023-03-07T08:52:13.099Z,97854.28
2023-03-07T08:54:41.345Z,97859.41
2023-03-07T08:57:09.081Z,97860.94
2023-03-07T08:59:36.886Z,97864.25
2023-03-07T09:02:04.965Z,97854.56
2023-03-07T09:04:33.341Z,97856.25
2023-03-07T09:07:01.828Z,97860.41
2023-03-07T09:09:29.929Z,97861.22
2023-03-07T09:11:57.772Z,97869.00
2023-03-07T09:14:25.772Z,97870.53
2023-03-07T09:16:53.870Z,97865.97
2023-03-07T09:19:22.289Z,97865.97
2023-03-07T09:21:50.505Z,97869.56
2023-03-07T09:24:18.652Z,97868.59
2023-03-07T09:26:46.830Z,97867.78
2023-03-07T09:29:14.668Z,97870.41
2023-03-07T09:31:44.851Z,97866.13
2023-03-07T09:34:12.749Z,97868.88
2023-03-07T09:36:40.557Z,97871.63
2023-03-07T09:39:08.730Z,97872.59
2023-03-07T09:41:36.522Z,97876.22
2023-03-07T09:44:05.174Z,97873.84
2023-03-07T09:46:33.214Z,97874.94
2023-03-07T09:49:01.019Z,97881.88
2023-03-07T09:51:29.729Z,97874.09
2023-03-07T09:53:58.396Z,97874.94
2023-03-07T09:56:27.483Z,97883.66
2023-03-07T09:58:55.388Z,97887.28
2023-03-07T10:01:23.473Z,97888.25
2023-03-07T10:03:51.830Z,97897.13
2023-03-07T10:06:20.137Z,97900.00
2023-03-07T10:08:48.593Z,97909.84
2023-03-07T10:11:16.557Z,97914.69
2023-03-07T10:13:44.373Z,97908.81
2023-03-07T10:16:12.674Z,97911.50
2023-03-07T10:18:40.494Z,97918.50
2023-03-07T10:21:08.966Z,97924.28
2023-03-07T10:23:37.093Z,97919.28
2023-03-07T10:26:05.070Z,97920.38
2023-03-07T10:28:33.301Z,97936.81
2023-03-07T10:31:01.505Z,97929.69
2023-03-07T10:33:29.590Z,97930.91
2023-03-07T10:35:57.500Z,97932.13
2023-03-07T10:38:25.353Z,97935.81
2023-03-07T10:40:53.327Z,97953.22
2023-03-07T10:43:21.242Z,97952.56
2023-03-07T10:45:49.468Z,97948.03
2023-03-07T10:48:17.811Z,97941.94
2023-03-07T10:50:45.726Z,97953.31
2023-03-07T10:53:13.658Z,97951.63
2023-03-07T10:55:41.594Z,97950.41
2023-03-07T10:58:10.137Z,97949.44
2023-03-07T11:00:38.259Z,97948.38
2023-03-07T11:03:06.305Z,97951.97
2023-03-07T11:05:34.488Z,97951.97
2023-03-07T11:08:03.393Z,97959.97
2023-03-07T11:10:32.156Z,97968.81
2023-03-07T11:13:00.002Z,97968.00
2023-03-07T11:15:27.936Z,97971.59
2023-03-07T11:17:56.098Z,97966.19
2023-03-07T11:20:23.998Z,97965.22
2023-03-07T11:22:51.961Z,97971.91
2023-03-07T11:25:19.935Z,97961.88
2023-03-07T11:27:47.884Z,97964.25
2023-03-07T11:30:16.721Z,97967.34
2023-03-07T11:32:45.030Z,97961.81
2023-03-07T11:35:13.089Z,97969.69
2023-03-07T11:37:41.142Z,97963.59
2023-03-07T11:40:08.957Z,97966.22
2023-03-07T11:42:36.857Z,97952.13
2023-03-07T11:45:05.128Z,97968.50
2023-03-07T11:47:34.272Z,97977.22
2023-03-07T11:50:02.090Z,97970.16
2023-03-07T11:52:30.351Z,97969.31
2023-03-07T11:54:59.186Z,97968.50
2023-03-07T11:57:27.100Z,97975.94
2023-03-07T11:59:55.483Z,97972.72
2023-03-07T12:02:23.312Z,97980.13
2023-03-07T12:04:52.948Z,97971.66
2023-03-07T12:07:21.768Z,97976.31
2023-03-07T12:09:52.517Z,97971.06
2023-03-07T12:12:20.847Z,97978.84
2023-03-07T12:14:49.007Z,97968.66
2023-03-07T12:17:17.253Z,97969.00
2023-03-07T12:19:45.310Z,97980.53
2023-03-07T12:22:13.548Z,97963.56
2023-03-07T12:24:41.898Z,97968.44
2023-03-07T12:27:09.824Z,97967.09
2023-03-07T12:29:37.873Z,97972.81
2023-03-07T12:32:06.168Z,97971.72
2023-03-07T12:34:34.321Z,97972.53
2023-03-07T12:37:02.728Z,97972.44
2023-03-07T12:39:31.081Z,97972.16
2023-03-07T12:41:59.080Z,97965.81
2023-03-07T12:44:27.451Z,97957.81
2023-03-07T12:46:55.386Z,97964.84
2023-03-07T12:49:23.620Z,97966.09
2023-03-07T12:51:51.876Z,97964.81
2023-03-07T12:54:19.916Z,97972.34
2023-03-07T12:56:47.790Z,97976.31
2023-03-07T12:59:15.847Z,97973.50
2023-03-07T13:01:44.210Z,97974.69
2023-03-07T13:04:12.131Z,97965.13
2023-03-07T13:06:42.004Z,97961.81
2023-03-07T13:09:12.471Z,97963.75
2023-03-07T13:11:40.472Z,97966.59
2023-03-07T13:14:09.453Z,97958.97
2023-03-07T13:16:37.521Z,97967.94
2023-03-07T13:19:05.493Z,97958.28
2023-03-07T13:21:34.191Z,97968.53
2023-03-07T13:24:02.395Z,97962.31
2023-03-07T13:26:30.700Z,97962.31
2023-03-07T13:28:58.641Z,97970.19
2023-03-07T13:31:29.334Z,97967.56
2023-03-07T13:33:57.277Z,97965.63
2023-03-07T13:36:25.390Z,97963.75
2023-03-07T13:38:53.903Z,97963.47
2023-03-07T13:41:21.891Z,97961.81
2023-03-07T13:43:49.981Z,97963.75
2023-03-07T13:46:18.944Z,97964.31
2023-03-07T13:48:46.943Z,97961.31
2023-03-07T13:51:15.591Z,97954.25
2023-03-07T13:53:43.775Z,97950.53
2023-03-07T13:56:11.576Z,97954.00
2023-03-07T13:58:40.121Z,97957.44
2023-03-07T14:01:08.008Z,97955.78
2023-03-07T14:03:36.769Z,97947.19
2023-03-07T14:06:04.930Z,97952.47
2023-03-07T14:08:33.929Z,97947.91
2023-03-07T14:11:01.875Z,97961.06
2023-03-07T14:13:29.953Z,97972.66
2023-03-07T14:15:58.368Z,97968.75
2023-03-07T14:18:26.251Z,97971.47
2023-03-07T14:20:54.376Z,97978.66
2023-03-07T14:23:22.431Z,97976.88
2023-03-07T14:25:52.266Z,97968.16
2023-03-07T14:28:20.971Z,97966.50
2023-03-07T14:30:48.906Z,97971.63
2023-03-07T14:33:16.752Z,97974.97
2023-03-07T14:35:45.045Z,97969.69
2023-03-07T14:38:13.013Z,97968.03
2023-03-07T14:40:40.838Z,97966.50
2023-03-07T14:43:08.913Z,97976.31
2023-03-07T14:45:36.873Z,97970.34
2023-03-07T14:48:05.040Z,97978.34
2023-03-07T14:50:33.257Z,97974.88
2023-03-07T14:53:02.558Z,97971.41
2023-03-07T14:55:30.589Z,97977.75
2023-03-07T14:57:58.657Z,97980.50
2023-03-07T15:00:27.508Z,97978.13
2023-03-07T15:02:55.403Z,97976.59
2023-03-07T15:05:25.780Z,97981.00
2023-03-07T15:07:55.077Z,97968.81
2023-03-07T15:10:23.101Z,97984.59
2023-03-07T15:12:51.418Z,97972.41
2023-03-07T15:15:19.796Z,97976.69
2023-03-07T15:17:48.012Z,97965.22
2023-03-07T15:20:16.010Z,97973.13
2023-03-07T15:22:43.956Z,97977.44
2023-03-07T15:25:12.306Z,97979.22
2023-03-07T15:27:40.661Z,97986.25
2023-03-07T15:30:09.046Z,97981.25
2023-03-07T15:32:36.981Z,97988.44
2023-03-07T15:35:05.094Z,97990.34
2023-03-07T15:37:35.120Z,97987.00
2023-03-07T15:40:02.997Z,97987.84
2023-03-07T15:42:31.606Z,97987.97
2023-03-07T15:44:59.436Z,97989.19
2023-03-07T15:47:27.382Z,97970.06
2023-03-07T15:49:55.711Z,97980.13
2023-03-07T15:52:23.484Z,97985.72
2023-03-07T15:54:52.141Z,97977.28
2023-03-07T15:57:20.278Z,97985.38
2023-03-07T15:59:48.236Z,97989.09
2023-03-07T16:02:18.573Z,97990.03
2023-03-07T16:04:46.601Z,97992.78
2023-03-07T16:07:15.100Z,97996.38
2023-03-07T16:09:43.041Z,97991.97
2023-03-07T16:12:11.135Z,97985.06
2023-03-07T16:14:39.301Z,97989.47
2023-03-07T16:17:07.291Z,97989.56
2023-03-07T16:19:36.085Z,97991.38
2023-03-07T16:22:04.874Z,97990.78
2023-03-07T16:24:32.815Z,97990.19
2023-03-07T16:27:00.871Z,97986.84
2023-03-07T16:29:28.782Z,97996.78
2023-03-07T16:31:57.530Z,97989.84
2023-03-07T16:34:25.601Z,97997.00
2023-03-07T16:36:53.473Z,97992.69
2023-03-07T16:39:21.639Z,97998.09
2023-03-07T16:41:49.704Z,97999.03
2023-03-07T16:44:18.579Z,98002.59
2023-03-07T16:46:46.487Z,98003.34
2023-03-07T16:49:14.448Z,98005.22
2023-03-07T16:51:42.798Z,97998.31
2023-03-07T16:54:10.769Z,98007.16
2023-03-07T16:56:39.345Z,98004.88
2023-03-07T16:59:08.546Z,98010.41
2023-03-07T17:01:36.653Z,98016.72
2023-03-07T17:04:04.890Z,98018.59
2023-03-07T17:06:39.235Z,98018.84
2023-03-07T17:09:08.078Z,98025.06
2023-03-07T17:11:35.954Z,98032.22
2023-03-07T17:14:03.880Z,98036.72
2023-03-07T17:16:32.170Z,98039.50
2023-03-07T17:19:00.250Z,98046.53
2023-03-07T17:21:28.483Z,98056.31
2023-03-07T17:23:56.558Z,98052.72
2023-03-07T17:26:24.525Z,98059.06
2023-03-07T17:28:53.029Z,98061.78
2023-03-07T17:31:21.204Z,98067.03
2023-03-07T17:33:50.396Z,98079.34
2023-03-07T17:36:18.445Z,98076.00
2023-03-07T17:38:46.588Z,98078.50
2023-03-07T17:41:14.827Z,98079.44
2023-03-07T17:43:42.608Z,98087.44
2023-03-07T17:46:11.221Z,98087.69
2023-03-07T17:48:39.660Z,98094.00
2023-03-07T17:51:07.663Z,98096.75
2023-03-07T17:53:36.188Z,98105.53
2023-03-07T17:56:04.078Z,98110.78
2023-03-07T17:58:32.474Z,98116.03
2023-03-07T18:01:00.705Z,98121.28
2023-03-07T18:03:28.702Z,98124.06
2023-03-07T18:05:56.891Z,98121.44
2023-03-07T18:08:25.605Z,98131.06
2023-03-07T18:10:54.327Z,98140.75
2023-03-07T18:13:24.578Z,98140.00
2023-03-07T18:15:52.719Z,98142.53
2023-03-07T18:18:20.910Z,98149.44
2023-03-07T18:20:48.754Z,98151.97
2023-03-07T18:23:17.284Z,98158.88
2023-03-07T18:25:45.167Z,98157.84
2023-03-07T18:28:13.119Z,98158.66
2023-03-07T18:30:41.493Z,98155.22
2023-03-07T18:33:09.775Z,98150.78
2023-03-07T18:35:37.713Z,98159.59
2023-03-07T18:38:05.802Z,98162.47
2023-03-07T18:40:33.643Z,98170.44
2023-03-07T18:43:01.928Z,98169.63
2023-03-07T18:45:30.034Z,98170.56
2023-03-07T18:47:58.426Z,98173.19
2023-03-07T18:50:26.385Z,98175.81
2023-03-07T18:52:54.506Z,98179.38
2023-03-07T18:55:23.063Z,98178.44
2023-03-07T18:57:51.086Z,98179.38
2023-03-07T19:00:20.173Z,98174.13
2023-03-07T19:02:48.122Z,98177.72
2023-03-07T19:05:16.279Z,98179.50
2023-03-07T19:07:45.095Z,98190.00
2023-03-07T19:10:12.966Z,98187.50
2023-03-07T19:12:41.626Z,98189.41
2023-03-07T19:15:09.641Z,98202.53
2023-03-07T19:17:38.161Z,98200.94
2023-03-07T19:20:06.100Z,98202.72
2023-03-07T19:22:34.202Z,98197.63
2023-03-07T19:25:02.458Z,98198.44
2023-03-07T19:27:32.408Z,98209.03
2023-03-07T19:30:01.092Z,98207.25
2023-03-07T19:32:29.754Z,98203.91
2023-03-07T19:34:57.639Z,98211.88
2023-03-07T19:37:25.893Z,98221.53
2023-03-07T19:39:54.171Z,98218.09
2023-03-07T19:42:22.187Z,98215.56
2023-03-07T19:44:50.471Z,98218.19
2023-03-07T19:47:18.994Z,98227.00
2023-03-07T19:49:48.912Z,98225.34
2023-03-07T19:52:17.171Z,98221.06
2023-03-07T19:54:45.698Z,98230.69
2023-03-07T19:57:16.447Z,98234.28
2023-03-07T19:59:45.344Z,98227.25
2023-03-07T20:02:14.518Z,98226.50
2023-03-07T20:04:42.873Z,98229.97
2023-03-07T20:07:11.796Z,98229.25
2023-03-07T20:09:39.938Z,98231.88
2023-03-07T20:12:07.785Z,98224.97
2023-03-07T20:14:38.630Z,98225.06
2023-03-07T20:17:06.497Z,98238.19
2023-03-07T20:19:34.382Z,98234.69
2023-03-07T20:22:02.586Z,98234.69
2023-03-07T20:24:30.932Z,98229.47
2023-03-07T20:26:59.061Z,98233.13
2023-03-07T20:29:27.226Z,98247.00
2023-03-07T20:31:55.139Z,98233.03
2023-03-07T20:34:25.347Z,98227.88
2023-03-07T20:36:55.081Z,98227.06
2023-03-07T20:39:22.938Z,98237.66
2023-03-07T20:41:50.968Z,98228.97
2023-03-07T20:44:19.238Z,98240.28
2023-03-07T20:46:48.495Z,98246.47
2023-03-07T20:49:16.450Z,98262.13
2023-03-07T20:51:44.856Z,98258.53
2023-03-07T20:54:12.789Z,98267.13
2023-03-07T20:56:40.786Z,98261.88
2023-03-07T20:59:09.683Z,98273.22
2023-03-07T21:01:37.634Z,98271.56
2023-03-07T21:04:06.942Z,98278.56
2023-03-07T21:06:35.161Z,98271.56
2023-03-07T21:09:06.554Z,98280.34
2023-03-07T21:11:34.708Z,98275.09
2023-03-07T21:14:02.758Z,98277.72
2023-03-07T21:16:31.549Z,98275.00
2023-03-07T21:19:01.506Z,98280.25
2023-03-07T21:21:29.798Z,98285.41
2023-03-07T21:23:58.419Z,98285.41
2023-03-07T21:26:26.266Z,98285.41
2023-03-07T21:28:54.748Z,98288.97
2023-03-07T21:31:22.632Z,98289.78
2023-03-07T21:33:50.571Z,98281.94
2023-03-07T21:36:18.820Z,98290.66
2023-03-07T21:38:46.765Z,98274.91
2023-03-07T21:41:15.259Z,98284.44
2023-03-07T21:43:43.238Z,98292.22
2023-03-07T21:46:11.175Z,98292.09
2023-03-07T21:48:39.482Z,98301.66
2023-03-07T21:51:07.367Z,98298.19
2023-03-07T21:53:35.931Z,98304.16
2023-03-07T21:56:03.792Z,98302.38
2023-03-07T21:58:31.670Z,98302.38
2023-03-07T22:00:59.599Z,98297.97
2023-03-07T22:03:27.547Z,98301.44
2023-03-07T22:05:57.383Z,98309.31
2023-03-07T22:08:25.341Z,98311.94
2023-03-07T22:10:53.262Z,98316.31
2023-03-07T22:13:21.080Z,98315.28
2023-03-07T22:15:49.248Z,98311.06
2023-03-07T22:18:18.193Z,98306.78
2023-03-07T22:20:46.061Z,98305.97
2023-03-07T22:23:13.902Z,98306.91
2023-03-07T22:25:41.860Z,98313.06
2023-03-07T22:28:09.713Z,98315.69
2023-03-07T22:30:37.998Z,98314.03
2023-03-07T22:33:05.850Z,98321.09
2023-03-07T22:35:33.794Z,98322.84
2023-03-07T22:38:02.961Z,98314.97
2023-03-07T22:40:30.825Z,98314.88
2023-03-07T22:42:59.101Z,98315.69
2023-03-07T22:45:26.794Z,98320.03
2023-03-07T22:47:55.180Z,98326.94
2023-03-07T22:50:23.410Z,98333.88
2023-03-07T22:52:51.242Z,98326.94
2023-03-07T22:55:19.259Z,98329.56
2023-03-07T22:57:47.027Z,98333.03
2023-03-07T23:00:14.712Z,98330.28
2023-03-07T23:02:42.435Z,98318.94
2023-03-07T23:05:10.130Z,98328.41
2023-03-07T23:07:38.102Z,98338.88
2023-03-07T23:10:05.812Z,98335.31
2023-03-07T23:12:33.565Z,98335.22
2023-03-07T23:15:01.584Z,98330.06
2023-03-07T23:17:29.328Z,98332.59
2023-03-07T23:19:57.394Z,98343.94
2023-03-07T23:22:25.690Z,98331.75
2023-03-07T23:24:53.447Z,98330.81
2023-03-07T23:27:21.099Z,98337.00
2023-03-07T23:29:48.734Z,98329.13
2023-03-07T23:32:16.831Z,98339.50
2023-03-07T23:34:44.519Z,98342.13
2023-03-07T23:37:12.148Z,98340.38
2023-03-07T23:39:39.901Z,98343.00
2023-03-07T23:42:07.598Z,98352.53
2023-03-07T23:44:36.352Z,98353.34
2023-03-07T23:47:03.994Z,98343.81
2023-03-07T23:49:31.686Z,98346.34
2023-03-07T23:51:59.317Z,98343.72
2023-03-07T23:54:26.902Z,98350.72
2023-03-07T23:56:55.187Z,98343.81
2023-03-07T23:59:22.799Z,98346.44
